• Join FlightAware (Why Join?)
  • Login
  • US Flag 
09:17PM EDT


 

Airport Tracker/Info


-or-


 

Live Flight TrackerFlight Track Log ✈ SWA3206 ✈ 07-May-2013 ✈ KPHL - KMDW

Flight Track Log - Related Links

Times and Time Zones

All times are in EDT time to prevent confusion due to time zone crossing. See the SWA3206 flight status page for this flight to view local times or setup timezone preferences in your user account.

Time Position Orientation Groundspeed Altitude Reporting Facility
EDT Latitude Longitude Course Direction KTS MPH feet Rate Location/Type
11:11AM 39.8833 -75.2167 90° East 147 169 700  Level Philadelphia TRACON
11:11AM 39.8833 -75.1833 90° East 180 207 1,900 3,000 Climbing Philadelphia TRACON
11:12AM 39.9167 -75.1167 57° Northeast 215 247 5,200 3,240 Climbing Philadelphia TRACON
11:13AM 39.9667 -75.1333 346° North 281 323 8,100 2,280 Climbing Philadelphia TRACON
11:14AM 40.0167 -75.2333 303° West 352 405 10,000 900 Climbing Philadelphia TRACON
11:15AM 40.0833 -75.3333 311° West 351 404 10,000 1,140 Level Philadelphia TRACON
11:17AM 40.1736 -75.4867 308° West 364 419 13,000 1,800 Climbing New York Center
11:18AM 40.2422 -75.5894 311° West 369 425 14,600 2,160 Climbing New York Center
11:19AM 40.3089 -75.6919 310° West 369 425 17,400 2,640 Climbing New York Center
11:20AM 40.3736 -75.7892 311° West 379 436 19,800 2,640 Climbing New York Center
11:21AM 40.4450 -75.9225 305° West 395 455 22,600 2,520 Climbing New York Center
11:22AM 40.4672 -76.0772 281° West 402 463 25,000 2,160 Climbing New York Center
11:23AM 40.4939 -76.2267 283° West 415 478 27,000 1,980 Climbing New York Center
11:24AM 40.5153 -76.3894 280° West 435 501 28,900 1,800 Climbing New York Center
11:25AM 40.5386 -76.5553 281° West 446 513 30,600 1,740 Climbing New York Center
11:26AM 40.5639 -76.7211 281° West 459 528 32,500 1,680 Climbing New York Center
11:27AM 40.5825 -76.8458 281° West 457 526 34,000 1,620 Climbing New York Center
11:28AM 40.6094 -77.0450 280° West 457 526 35,800 960 Climbing New York Center
11:29AM 40.6339 -77.2114 281° West 457 526 36,000 60 Climbing New York Center
11:30AM 40.6572 -77.3586 282° West 457 526 36,000  Level New York Center
11:31AM 40.6808 -77.5281 280° West 463 533 36,000  Level New York Center
11:33AM 40.7297 -77.9006 280° West 470 541 36,000 300 Level Cleveland Center
11:34AM 40.7525 -78.0669 280° West 470 541 37,000 960 Climbing Cleveland Center
11:35AM 40.7747 -78.2389 280° West 470 541 38,000 480 Climbing Cleveland Center
11:36AM 40.7947 -78.4081 279° West 475 547 38,000  Level Cleveland Center
11:37AM 40.8189 -78.5831 280° West 475 547 38,000  Level Cleveland Center
11:38AM 40.8406 -78.7525 280° West 480 552 38,000  Level Cleveland Center
11:39AM 40.8639 -78.9192 281° West 480 552 38,000  Level Cleveland Center
11:40AM 40.8872 -79.0917 280° West 480 552 38,000  Level Cleveland Center
11:41AM 40.9081 -79.2644 279° West 485 558 38,000  Level Cleveland Center
11:42AM 40.9264 -79.4344 278° West 485 558 38,000  Level Cleveland Center
11:43AM 40.9489 -79.6044 280° West 485 558 38,000  Level Cleveland Center
11:44AM 40.9669 -79.7747 278° West 480 552 38,000  Level Cleveland Center
11:45AM 40.9869 -79.9478 279° West 480 552 38,000  Level Cleveland Center
11:46AM 41.0086 -80.1181 280° West 480 552 38,000  Level Cleveland Center
11:47AM 41.0258 -80.2914 278° West 480 552 38,000  Level Cleveland Center
11:48AM 41.0469 -80.4619 279° West 480 552 38,000  Level Cleveland Center
11:49AM 41.0656 -80.6328 278° West 480 552 38,000  Level Cleveland Center
11:50AM 41.0842 -80.8089 278° West 485 558 38,000  Level Cleveland Center
11:51AM 41.1047 -80.9828 279° West 485 558 38,000  Level Cleveland Center
11:52AM 41.1164 -81.1400 276° West 485 558 38,000  Level Cleveland Center
11:53AM 41.1364 -81.3136 279° West 480 552 38,000  Level Cleveland Center
11:54AM 41.1578 -81.5014 279° West 480 552 38,000  Level Cleveland Center
11:55AM 41.1750 -81.6756 278° West 485 558 38,000  Level Cleveland Center
11:56AM 41.1919 -81.8497 277° West 485 558 38,000  Level Cleveland Center
11:57AM 41.2086 -82.0267 277° West 485 558 38,000  Level Cleveland Center
11:58AM 41.2250 -82.2092 277° West 485 558 38,000  Level Cleveland Center
11:59AM 41.2394 -82.3642 277° West 485 558 38,000  Level Cleveland Center
12:00PM 41.2553 -82.5386 277° West 485 558 38,000  Level Cleveland Center
12:01PM 41.2708 -82.7131 277° West 485 558 38,000  Level Cleveland Center
12:02PM 41.2864 -82.8878 277° West 485 558 38,000  Level Cleveland Center
12:03PM 41.3014 -83.0625 277° West 479 551 38,000  Level Cleveland Center
12:04PM 41.3164 -83.2372 277° West 479 551 38,000  Level Cleveland Center
12:05PM 41.3311 -83.4039 277° West 479 551 38,000 -420 Level Cleveland Center
12:06PM 41.3456 -83.5758 276° West 479 551 37,200 -900 Descending Cleveland Center
12:07PM 41.3594 -83.7508 276° West 479 551 36,300 -600 Descending Cleveland Center
12:08PM 41.3753 -83.9233 277° West 479 551 36,000 -180 Descending Cleveland Center
12:09PM 41.3869 -84.0928 275° West 479 551 36,000 -60 Level Cleveland Center
12:10PM 41.4047 -84.2625 278° West 479 551 35,900 -660 Descending Cleveland Center
12:11PM 41.4156 -84.4350 275° West 474 545 34,700 -2,160 Descending Cleveland Center
12:12PM 41.4319 -84.6303 276° West 468 539 31,100 -2,100 Descending Chicago Center
12:13PM 41.4453 -84.8372 275° West 468 539 30,000 -540 Descending Chicago Center
12:14PM 41.4583 -85.0103 276° West 468 539 30,000 -1,020 Level Chicago Center
12:15PM 41.4700 -85.1814 275° West 463 533 28,000 -2,100 Descending Chicago Center
12:16PM 41.4803 -85.3483 275° West 450 518 25,700 -2,100 Descending Chicago Center
12:17PM 41.4911 -85.5089 275° West 425 489 23,700 -2,040 Descending Chicago Center
12:18PM 41.5011 -85.6606 275° West 407 468 21,500 -2,040 Descending Chicago Center
12:19PM 41.5100 -85.8047 275° West 391 450 19,500 -1,860 Descending Chicago Center
12:20PM 41.5197 -85.9428 275° West 376 433 17,700 -2,100 Descending Chicago Center
12:21PM 41.5250 -86.1044 273° West 365 420 15,200 -2,160 Descending Chicago Center
12:22PM 41.5242 -86.2378 270° West 362 417 13,300 -1,920 Descending Chicago Center
12:23PM 41.5225 -86.3675 269° West 352 405 11,300 -1,500 Descending Chicago Center
12:24PM 41.5211 -86.4936 269° West 344 396 10,200 -660 Descending Chicago Center
12:26PM 41.5239 -86.6178 272° West 338 389 10,000 -120 Descending Chicago Center
12:27PM 41.5217 -86.7444 269° West 332 382 10,000 -240 Level Chicago Center
12:28PM 41.5194 -86.8872 269° West 320 368 9,600 -840 Descending Chicago Center
12:29PM 41.5181 -86.9958 269° West 299 344 8,300 -1,440 Descending Chicago Center
12:30PM 41.5158 -87.1039 268° West 295 339 6,700 -1,260 Descending Chicago Center
12:31PM 41.5167 -87.2000 271° West 287 330 6,000 -420 Descending Chicago TRACON
12:32PM 41.5167 -87.3000 270° West 281 323 6,000 -480 Level Chicago TRACON
12:33PM 41.5333 -87.4167 281° West 286 329 5,100 -720 Descending Chicago TRACON
12:33PM 41.5308 -87.4181 203° Southwest 284 327 5,100 -900 Level Chicago Center
12:34PM 41.5497 -87.5364 282° West 277 319 4,000 -540 Descending Chicago Center
12:35PM 41.5939 -87.6181 306° West 277 319 4,000 -540 Level Chicago Center
12:36PM 41.6333 -87.6833 309° West 273 314 3,100 -900 Descending Chicago TRACON
12:37PM 41.6667 -87.7500 304° West 241 277 2,500 -420 Descending Chicago TRACON
12:38PM 41.7167 -87.8000 323° Northwest 167 192 2,300 -480 Descending Chicago TRACON
12:39PM 41.7500 -87.8000 360° North 130 150 1,600 -780 Descending Chicago TRACON
12:40PM 41.7667 -87.7667 56° Northeast 132 152 800 -840 Descending Chicago TRACON